createdAt,value
2023-05-10T00:00:09.735Z,31.42
2023-05-10T00:01:09.727Z,31.30
2023-05-10T00:02:09.848Z,31.55
2023-05-10T00:03:09.908Z,30.39
2023-05-10T00:04:09.967Z,31.41
2023-05-10T00:05:09.925Z,31.08
2023-05-10T00:06:09.879Z,31.16
2023-05-10T00:07:09.923Z,32.48
2023-05-10T00:08:09.984Z,32.51
2023-05-10T00:09:09.957Z,32.80
2023-05-10T00:10:09.988Z,30.78
2023-05-10T00:11:10.021Z,32.16
2023-05-10T00:12:10.036Z,32.75
2023-05-10T00:13:10.076Z,33.05
2023-05-10T00:14:10.057Z,33.76
2023-05-10T00:15:10.016Z,32.58
2023-05-10T00:16:10.087Z,32.82
2023-05-10T00:17:10.054Z,29.93
2023-05-10T00:18:10.209Z,33.45
2023-05-10T00:19:10.095Z,30.84
2023-05-10T00:20:10.119Z,29.68
2023-05-10T00:21:10.131Z,34.12
2023-05-10T00:22:10.142Z,33.56
2023-05-10T00:23:10.165Z,33.09
2023-05-10T00:24:10.189Z,33.63
2023-05-10T00:25:10.187Z,32.03
2023-05-10T00:26:10.198Z,29.76
2023-05-10T00:27:10.200Z,32.26
2023-05-10T00:28:10.259Z,30.63
2023-05-10T00:29:10.239Z,29.09
2023-05-10T00:30:10.269Z,32.30
2023-05-10T00:31:10.338Z,32.29
2023-05-10T00:32:10.408Z,33.28
2023-05-10T00:33:10.397Z,29.77
2023-05-10T00:34:10.387Z,33.36
2023-05-10T00:35:10.329Z,34.25
2023-05-10T00:36:10.380Z,34.33
2023-05-10T00:37:10.347Z,30.60
2023-05-10T00:38:10.358Z,34.15
2023-05-10T00:39:10.324Z,35.13
2023-05-10T00:40:10.330Z,31.12
2023-05-10T00:41:10.363Z,34.61
2023-05-10T00:42:10.360Z,31.40
2023-05-10T00:43:10.355Z,31.35
2023-05-10T00:44:10.352Z,35.17
2023-05-10T00:45:10.373Z,34.25
2023-05-10T00:46:10.388Z,33.07
2023-05-10T00:47:10.353Z,31.46
2023-05-10T00:48:10.383Z,32.41
2023-05-10T00:49:10.367Z,30.97
2023-05-10T00:50:10.338Z,32.28
2023-05-10T00:51:10.330Z,31.76
2023-05-10T00:52:10.391Z,33.60
2023-05-10T00:53:10.314Z,34.01
2023-05-10T00:54:10.352Z,31.98
2023-05-10T00:55:10.340Z,36.56
2023-05-10T00:56:10.328Z,33.40
2023-05-10T00:57:10.314Z,36.28
2023-05-10T00:58:10.327Z,34.47
2023-05-10T00:59:10.591Z,34.62
2023-05-10T01:00:10.326Z,32.61
2023-05-10T01:01:10.401Z,34.62
2023-05-10T01:02:10.379Z,33.36
2023-05-10T01:03:10.392Z,34.14
2023-05-10T01:04:10.590Z,35.91
2023-05-10T01:05:10.374Z,33.30
2023-05-10T01:06:10.375Z,33.52
2023-05-10T01:07:10.407Z,35.31
2023-05-10T01:08:10.364Z,33.00
2023-05-10T01:09:10.377Z,33.43
2023-05-10T01:10:10.397Z,32.94
2023-05-10T01:11:10.369Z,33.68
2023-05-10T01:12:10.391Z,34.61
2023-05-10T01:13:10.385Z,34.12
2023-05-10T01:14:10.396Z,36.88
2023-05-10T01:15:10.362Z,34.18
2023-05-10T01:16:10.464Z,34.23
2023-05-10T01:17:10.386Z,35.71
2023-05-10T01:18:10.347Z,33.73
2023-05-10T01:28:24.643Z,25.00
2023-05-10T01:29:24.417Z,25.00
2023-05-10T01:30:24.550Z,25.00
2023-05-10T01:31:24.560Z,25.00
2023-05-10T01:32:24.433Z,25.00
2023-05-10T01:33:24.433Z,25.00
2023-05-10T01:34:24.365Z,25.35
2023-05-10T01:35:24.403Z,25.00
2023-05-10T01:36:24.341Z,25.80
2023-05-10T01:37:24.331Z,27.15
2023-05-10T01:38:24.368Z,27.94
2023-05-10T01:39:24.363Z,26.95
2023-05-10T01:40:24.316Z,27.81
2023-05-10T01:41:24.337Z,29.05
2023-05-10T01:42:24.376Z,25.00
2023-05-10T01:43:24.297Z,26.05
2023-05-10T01:44:24.641Z,29.49
2023-05-10T01:45:24.274Z,30.66
2023-05-10T01:46:24.354Z,25.00
2023-05-10T01:47:24.333Z,25.49
2023-05-10T01:48:24.258Z,29.53
2023-05-10T01:49:24.255Z,25.97
2023-05-10T01:50:24.246Z,29.06
2023-05-10T01:51:24.234Z,30.16
2023-05-10T01:52:24.230Z,27.78
2023-05-10T01:53:24.237Z,30.14
2023-05-10T01:54:24.225Z,29.90
2023-05-10T01:55:24.255Z,26.59
2023-05-10T01:56:24.216Z,27.29
2023-05-10T01:57:24.193Z,29.81
2023-05-10T01:58:24.237Z,29.33
2023-05-10T01:59:24.216Z,27.24
2023-05-10T02:00:24.186Z,27.32
2023-05-10T02:01:24.199Z,27.63
2023-05-10T02:02:24.178Z,26.45
2023-05-10T02:03:24.245Z,28.31
2023-05-10T02:04:24.169Z,27.44
2023-05-10T02:05:24.169Z,28.12
2023-05-10T02:06:24.144Z,29.46
2023-05-10T02:07:24.145Z,30.09
2023-05-10T02:08:24.164Z,25.73
2023-05-10T02:09:24.153Z,27.51
2023-05-10T02:10:24.116Z,29.12
2023-05-10T02:11:24.128Z,29.70
2023-05-10T02:12:24.128Z,26.85
2023-05-10T02:13:24.091Z,27.83
2023-05-10T02:14:24.072Z,25.80
2023-05-10T02:15:24.619Z,25.64
2023-05-10T02:16:24.132Z,31.46
2023-05-10T02:17:24.103Z,29.76
2023-05-10T02:18:24.051Z,27.55
2023-05-10T02:19:24.084Z,27.96
2023-05-10T02:20:24.060Z,30.11
2023-05-10T02:21:24.049Z,26.99
2023-05-10T02:22:24.013Z,29.65
2023-05-10T02:23:24.002Z,29.86
2023-05-10T02:24:24.033Z,27.78
2023-05-10T02:25:24.053Z,29.39
2023-05-10T02:26:24.009Z,26.96
2023-05-10T02:27:23.969Z,30.70
2023-05-10T02:28:23.986Z,28.29
2023-05-10T02:29:23.965Z,30.85
2023-05-10T02:30:23.974Z,28.83
2023-05-10T02:31:23.978Z,32.42
2023-05-10T02:32:24.061Z,29.28
2023-05-10T02:33:23.960Z,29.60
2023-05-10T02:34:23.949Z,29.97
2023-05-10T02:35:23.918Z,26.16
2023-05-10T02:36:23.907Z,31.26
2023-05-10T02:37:23.896Z,31.69
2023-05-10T02:38:23.910Z,32.07
2023-05-10T02:39:23.881Z,31.20
2023-05-10T02:40:23.921Z,31.19
2023-05-10T02:41:23.917Z,30.14
2023-05-10T02:42:23.922Z,32.87
2023-05-10T02:43:23.865Z,32.73
2023-05-10T02:44:23.891Z,33.83
2023-05-10T02:45:23.838Z,28.76
2023-05-10T02:46:23.910Z,30.39
2023-05-10T02:47:23.839Z,31.43
2023-05-10T02:48:23.841Z,33.90
2023-05-10T02:49:23.828Z,30.38
2023-05-10T02:50:23.848Z,32.17
2023-05-10T02:51:23.798Z,33.30
2023-05-10T02:52:23.796Z,28.84
2023-05-10T02:53:23.780Z,30.42
2023-05-10T02:54:23.819Z,30.39
2023-05-10T02:55:23.788Z,32.12
2023-05-10T02:56:23.765Z,31.29
2023-05-10T02:57:23.750Z,33.05
2023-05-10T02:58:23.789Z,31.97
2023-05-10T02:59:23.760Z,30.65
2023-05-10T03:00:23.760Z,31.61
2023-05-10T03:01:23.773Z,32.78
2023-05-10T03:02:23.785Z,35.02
2023-05-10T03:03:23.725Z,32.16
2023-05-10T03:04:23.767Z,33.61
2023-05-10T03:05:23.717Z,30.78
2023-05-10T03:06:23.790Z,32.71
2023-05-10T03:07:23.761Z,35.09
2023-05-10T03:08:23.728Z,36.44
2023-05-10T03:09:23.691Z,33.32
2023-05-10T03:10:23.707Z,35.03
2023-05-10T03:11:23.673Z,33.80
2023-05-10T03:12:23.654Z,33.12
2023-05-10T03:13:23.860Z,32.02
2023-05-10T03:14:23.668Z,36.17
2023-05-10T03:15:23.648Z,33.50
2023-05-10T03:16:23.692Z,33.71
2023-05-10T03:17:23.666Z,31.11
2023-05-10T03:18:23.640Z,31.63
2023-05-10T03:19:23.657Z,33.95
2023-05-10T03:20:23.607Z,34.16
2023-05-10T03:21:23.610Z,34.20
2023-05-10T03:22:23.607Z,31.16
2023-05-10T03:23:23.569Z,32.44
2023-05-10T03:24:24.153Z,34.80
2023-05-10T03:25:23.624Z,33.92
2023-05-10T03:26:23.567Z,30.15
2023-05-10T03:27:23.550Z,33.29
2023-05-10T03:28:23.536Z,35.52
2023-05-10T03:29:23.611Z,33.23
2023-05-10T03:30:23.564Z,31.40
2023-05-10T03:31:23.568Z,31.89
2023-05-10T03:32:23.558Z,31.21
2023-05-10T03:33:23.528Z,30.48
2023-05-10T03:34:23.610Z,30.83
2023-05-10T03:35:23.508Z,32.75
2023-05-10T03:36:23.527Z,31.60
2023-05-10T03:37:23.538Z,31.43
2023-05-10T03:38:23.517Z,30.26
2023-05-10T03:39:23.493Z,29.99
2023-05-10T03:40:23.522Z,31.69
2023-05-10T03:41:23.470Z,33.09
2023-05-10T03:42:23.496Z,31.63
2023-05-10T03:43:23.432Z,33.10
2023-05-10T03:44:23.469Z,34.21
2023-05-10T03:45:23.443Z,31.00
2023-05-10T03:46:23.443Z,30.23
2023-05-10T03:47:23.514Z,31.50
2023-05-10T03:48:23.401Z,34.33
2023-05-10T03:49:23.434Z,32.20
2023-05-10T03:50:23.425Z,31.46
2023-05-10T03:51:23.395Z,32.27
2023-05-10T03:52:23.373Z,32.31
2023-05-10T03:53:23.432Z,28.21
2023-05-10T03:54:23.406Z,29.18
2023-05-10T03:55:23.384Z,25.53
2023-05-10T03:56:23.344Z,31.64
2023-05-10T03:57:23.363Z,33.30
2023-05-10T03:58:23.343Z,33.80
2023-05-10T03:59:23.330Z,30.08
2023-05-10T04:00:23.332Z,31.67
2023-05-10T04:01:23.326Z,31.87
2023-05-10T04:02:23.386Z,31.78
2023-05-10T04:03:23.383Z,32.14
2023-05-10T04:04:23.319Z,31.38
2023-05-10T04:05:23.301Z,31.17
2023-05-10T04:06:23.367Z,31.06
2023-05-10T04:07:23.286Z,32.07
2023-05-10T04:08:23.357Z,31.45
2023-05-10T04:09:23.312Z,32.04
2023-05-10T04:10:23.296Z,30.88
2023-05-10T04:11:23.271Z,30.30
2023-05-10T04:12:23.263Z,35.11
2023-05-10T04:13:23.278Z,31.78
2023-05-10T04:14:23.265Z,34.45
2023-05-10T04:15:23.234Z,32.40
2023-05-10T04:16:23.253Z,29.97
2023-05-10T04:17:23.262Z,32.00
2023-05-10T04:18:23.205Z,29.64
2023-05-10T04:19:23.234Z,31.35
2023-05-10T04:20:23.206Z,30.26
2023-05-10T04:21:23.212Z,35.02
2023-05-10T04:22:23.191Z,33.54
2023-05-10T04:23:23.168Z,32.89
2023-05-10T04:24:23.180Z,32.35
2023-05-10T04:25:23.160Z,30.04
2023-05-10T04:26:23.171Z,32.38
2023-05-10T04:27:23.138Z,30.04
2023-05-10T04:28:23.136Z,30.98
2023-05-10T04:29:23.156Z,33.02
2023-05-10T04:30:23.117Z,31.87
2023-05-10T04:31:23.158Z,31.06
2023-05-10T04:32:23.165Z,32.79
2023-05-10T04:33:23.105Z,31.54
2023-05-10T04:34:23.118Z,29.39
2023-05-10T04:35:23.113Z,30.12
2023-05-10T04:36:23.099Z,31.48
2023-05-10T04:37:23.077Z,29.08
2023-05-10T04:38:23.075Z,30.99
2023-05-10T04:39:23.116Z,27.33
2023-05-10T04:40:23.070Z,32.39
2023-05-10T04:41:23.049Z,31.76
2023-05-10T04:42:23.037Z,32.27
2023-05-10T04:43:23.026Z,30.90
2023-05-10T04:44:23.036Z,31.26
2023-05-10T04:45:23.036Z,29.56
2023-05-10T04:46:23.021Z,29.32
2023-05-10T04:47:23.020Z,30.22
2023-05-10T04:48:23.021Z,30.41
2023-05-10T04:49:23.036Z,30.77
2023-05-10T04:50:23.019Z,28.45
2023-05-10T04:51:23.016Z,28.54
2023-05-10T04:52:22.973Z,31.78
2023-05-10T04:53:23.013Z,33.47
2023-05-10T04:54:22.979Z,32.44
2023-05-10T04:55:22.944Z,25.33
2023-05-10T04:56:22.952Z,28.12
2023-05-10T04:57:22.935Z,25.00
2023-05-10T04:58:22.945Z,27.44
2023-05-10T04:59:23.180Z,30.96
2023-05-10T05:00:22.941Z,26.70
2023-05-10T05:01:22.976Z,26.61
2023-05-10T05:02:22.973Z,27.52
2023-05-10T05:03:23.013Z,25.00
2023-05-10T05:04:22.897Z,28.69
2023-05-10T05:05:22.901Z,25.00
2023-05-10T05:06:22.911Z,25.42
2023-05-10T05:07:22.888Z,24.60
2023-05-10T05:08:22.892Z,26.13
2023-05-10T05:09:22.936Z,31.49
2023-05-10T05:10:22.938Z,26.37
2023-05-10T05:11:22.946Z,28.74
2023-05-10T05:12:22.961Z,25.78
2023-05-10T05:13:23.229Z,30.57
2023-05-10T05:14:22.973Z,25.00
2023-05-10T05:15:22.983Z,26.93
2023-05-10T05:16:23.076Z,27.15
2023-05-10T05:17:23.013Z,32.05
2023-05-10T05:18:23.117Z,25.33
2023-05-10T05:19:23.056Z,28.43
2023-05-10T05:20:23.106Z,26.07
2023-05-10T05:21:23.025Z,26.49
2023-05-10T05:22:23.065Z,26.19
2023-05-10T05:23:23.065Z,31.91
2023-05-10T05:24:23.049Z,29.78
2023-05-10T05:25:23.056Z,29.03
2023-05-10T05:26:23.154Z,24.98
2023-05-10T05:27:23.062Z,25.53
2023-05-10T05:28:23.141Z,28.17
2023-05-10T05:29:23.197Z,30.98
2023-05-10T05:30:23.117Z,32.55
2023-05-10T05:31:23.094Z,39.70
2023-05-10T05:32:23.100Z,43.98
2023-05-10T05:33:23.068Z,53.21
2023-05-10T05:34:23.101Z,125.60
2023-05-10T05:35:23.068Z,135.71
2023-05-10T05:36:23.097Z,153.92
2023-05-10T05:37:23.080Z,168.68
2023-05-10T05:38:23.100Z,187.71
2023-05-10T05:39:23.123Z,203.02
2023-05-10T05:40:23.161Z,213.45
2023-05-10T05:41:23.146Z,226.81
2023-05-10T05:42:23.158Z,235.74
2023-05-10T05:43:23.149Z,234.79
2023-05-10T05:44:23.213Z,237.51
2023-05-10T05:45:23.901Z,244.00
2023-05-10T05:46:23.259Z,240.87
2023-05-10T05:47:23.249Z,235.57
2023-05-10T05:48:23.195Z,235.20
2023-05-10T05:49:23.299Z,237.26
2023-05-10T05:50:23.249Z,240.31
2023-05-10T05:51:23.214Z,242.45
2023-05-10T05:52:23.236Z,239.04
2023-05-10T05:53:23.238Z,250.00
2023-05-10T05:54:23.297Z,250.00
2023-05-10T05:55:23.737Z,247.49
2023-05-10T05:56:24.200Z,249.29
2023-05-10T05:57:23.341Z,244.64
2023-05-10T05:58:23.282Z,243.47
2023-05-10T05:59:23.348Z,244.77
2023-05-10T06:00:23.320Z,246.88
2023-05-10T06:01:23.294Z,241.49
2023-05-10T06:02:23.390Z,238.11
2023-05-10T06:03:23.398Z,249.21
2023-05-10T06:04:23.372Z,249.32
2023-05-10T06:05:23.306Z,246.67
2023-05-10T06:06:23.336Z,250.00
2023-05-10T06:07:23.302Z,246.89
2023-05-10T06:08:23.353Z,245.28
2023-05-10T06:09:23.314Z,244.26
2023-05-10T06:10:23.339Z,241.47
2023-05-10T06:11:23.368Z,242.94
2023-05-10T06:12:23.350Z,239.07
2023-05-10T06:13:23.433Z,239.53
2023-05-10T06:14:23.322Z,247.41
2023-05-10T06:15:23.741Z,245.38
2023-05-10T06:16:23.487Z,237.21
2023-05-10T06:17:23.392Z,235.20
2023-05-10T06:18:23.346Z,233.76
2023-05-10T06:19:23.652Z,231.97
2023-05-10T06:20:23.314Z,229.55
2023-05-10T06:21:23.316Z,232.04
2023-05-10T06:22:23.393Z,232.92
2023-05-10T06:23:23.329Z,236.92
2023-05-10T06:24:23.353Z,236.46
2023-05-10T06:25:23.327Z,241.87
2023-05-10T06:26:23.318Z,242.85
2023-05-10T06:27:23.347Z,247.32
2023-05-10T06:28:23.316Z,248.66
2023-05-10T06:29:23.311Z,246.83
2023-05-10T06:30:23.327Z,246.60
2023-05-10T06:31:23.321Z,243.75
2023-05-10T06:32:23.402Z,245.72
2023-05-10T06:33:23.333Z,240.31
2023-05-10T06:34:23.334Z,230.73
2023-05-10T06:35:23.348Z,230.60
2023-05-10T06:36:23.373Z,240.32
2023-05-10T06:37:23.361Z,237.32
2023-05-10T06:38:23.376Z,242.03
2023-05-10T06:39:23.734Z,241.78
2023-05-10T06:40:24.211Z,227.68
2023-05-10T06:41:24.819Z,227.26
2023-05-10T06:42:23.448Z,233.01
2023-05-10T06:43:23.421Z,232.63
2023-05-10T06:44:23.788Z,233.25
2023-05-10T06:45:23.385Z,234.60
2023-05-10T06:46:23.488Z,230.77
2023-05-10T06:47:23.430Z,234.92
2023-05-10T06:48:23.479Z,231.15
2023-05-10T06:49:23.498Z,232.19
2023-05-10T06:50:23.424Z,228.88
2023-05-10T06:51:23.447Z,238.95
2023-05-10T06:52:23.482Z,244.37
2023-05-10T06:53:23.455Z,250.00
2023-05-10T06:54:23.491Z,249.16
2023-05-10T06:55:23.530Z,246.89
2023-05-10T06:56:23.499Z,244.64
2023-05-10T06:57:31.867Z,248.21
2023-05-10T06:58:24.495Z,248.46
2023-05-10T06:59:23.747Z,248.24
2023-05-10T07:00:23.847Z,240.51
2023-05-10T07:01:23.672Z,241.20
2023-05-10T07:02:23.553Z,243.71
2023-05-10T07:03:23.532Z,248.14
2023-05-10T07:04:23.765Z,236.21
2023-05-10T07:05:23.560Z,235.77
2023-05-10T07:06:33.050Z,246.23
2023-05-10T07:07:24.452Z,246.43
2023-05-10T07:08:23.459Z,241.49
2023-05-10T07:09:24.205Z,244.68
2023-05-10T07:10:23.513Z,236.50
2023-05-10T07:11:23.407Z,238.04
2023-05-10T07:12:23.539Z,236.56
2023-05-10T07:13:23.569Z,238.99
2023-05-10T07:14:23.389Z,235.40
2023-05-10T07:15:23.395Z,225.72
2023-05-10T07:16:23.502Z,222.02
2023-05-10T07:17:23.449Z,225.40
2023-05-10T07:18:23.421Z,222.08
2023-05-10T07:19:23.372Z,229.42
2023-05-10T07:20:23.420Z,230.81
2023-05-10T07:21:23.474Z,225.56
2023-05-10T07:22:23.372Z,231.31
2023-05-10T07:23:23.346Z,233.54
2023-05-10T07:24:23.353Z,239.19
2023-05-10T07:25:23.376Z,234.33
2023-05-10T07:26:23.326Z,238.84
2023-05-10T07:27:23.381Z,242.49
2023-05-10T07:28:23.324Z,234.03
2023-05-10T07:29:23.308Z,236.30
2023-05-10T07:30:23.387Z,242.98
2023-05-10T07:31:23.286Z,248.44
2023-05-10T07:32:23.843Z,249.17
2023-05-10T07:33:23.381Z,227.75
2023-05-10T07:34:23.311Z,225.26
2023-05-10T07:35:23.381Z,220.13
2023-05-10T07:36:23.312Z,217.77
2023-05-10T07:37:23.297Z,223.11
2023-05-10T07:38:23.240Z,228.22
2023-05-10T07:39:27.693Z,231.16
2023-05-10T07:40:23.265Z,231.26
2023-05-10T07:41:23.408Z,231.28
2023-05-10T07:42:23.212Z,231.66
2023-05-10T07:43:23.213Z,229.82
2023-05-10T07:44:23.211Z,226.78
2023-05-10T07:45:23.214Z,225.54
2023-05-10T07:46:23.306Z,222.25
2023-05-10T07:47:23.224Z,221.20
2023-05-10T07:48:23.201Z,222.36
2023-05-10T07:49:23.325Z,220.90
2023-05-10T07:50:23.193Z,216.56
2023-05-10T07:51:23.531Z,214.02
2023-05-10T07:52:23.733Z,212.59
2023-05-10T07:53:23.161Z,211.05
2023-05-10T07:54:23.147Z,208.37
2023-05-10T07:55:23.137Z,208.26
2023-05-10T07:56:23.122Z,207.03
2023-05-10T07:57:23.724Z,204.60
2023-05-10T07:58:23.111Z,198.79
2023-05-10T07:59:23.128Z,196.59
2023-05-10T08:00:23.148Z,191.34
2023-05-10T08:01:23.083Z,193.35
2023-05-10T08:02:23.133Z,190.58
2023-05-10T08:03:23.210Z,192.66
2023-05-10T08:04:23.229Z,189.76
2023-05-10T08:05:23.124Z,191.01
2023-05-10T08:06:23.053Z,195.73
2023-05-10T08:07:23.031Z,197.70
2023-05-10T08:08:23.197Z,201.12
2023-05-10T08:09:23.047Z,200.90
2023-05-10T08:10:23.031Z,201.18
2023-05-10T08:11:23.051Z,203.16
2023-05-10T08:12:23.009Z,201.94
2023-05-10T08:13:23.056Z,202.94
2023-05-10T08:14:23.013Z,203.86
2023-05-10T08:15:23.041Z,203.77
2023-05-10T08:16:23.127Z,200.64
2023-05-10T08:17:24.789Z,201.61
2023-05-10T08:18:23.080Z,202.96
2023-05-10T08:19:22.989Z,200.94
2023-05-10T08:20:22.997Z,200.93
2023-05-10T08:21:22.968Z,203.65
2023-05-10T08:22:22.950Z,204.93
2023-05-10T08:23:22.978Z,202.30
2023-05-10T08:24:22.970Z,205.84
2023-05-10T08:25:22.952Z,208.84
2023-05-10T08:26:22.931Z,213.54
2023-05-10T08:27:23.094Z,225.45
2023-05-10T08:28:22.926Z,238.60
2023-05-10T08:29:22.938Z,240.17
2023-05-10T08:30:22.904Z,238.55
2023-05-10T08:31:22.941Z,246.22
2023-05-10T08:32:22.877Z,248.32
2023-05-10T08:33:22.905Z,247.54
2023-05-10T08:34:23.035Z,250.07
2023-05-10T08:35:22.872Z,246.27
2023-05-10T08:36:22.944Z,246.90
2023-05-10T08:37:22.861Z,237.17
2023-05-10T08:38:22.844Z,226.53
2023-05-10T08:39:29.810Z,220.23
2023-05-10T08:40:23.889Z,220.57
2023-05-10T08:41:22.867Z,220.37
2023-05-10T08:42:23.742Z,216.89
2023-05-10T08:43:22.846Z,215.67
2023-05-10T08:44:22.854Z,210.73
2023-05-10T08:45:23.390Z,205.11
2023-05-10T08:46:22.932Z,170.08
2023-05-10T08:47:22.937Z,164.40
2023-05-10T08:48:22.929Z,170.45
2023-05-10T08:49:22.820Z,169.27
2023-05-10T08:50:23.319Z,160.86
2023-05-10T08:51:22.812Z,167.87
2023-05-10T08:52:22.794Z,161.18
2023-05-10T08:53:22.820Z,175.11
2023-05-10T08:54:22.800Z,167.02
2023-05-10T08:55:22.829Z,165.35
2023-05-10T08:56:22.783Z,158.34
2023-05-10T08:57:22.812Z,170.50
2023-05-10T08:58:22.821Z,175.78
2023-05-10T08:59:22.823Z,177.54
2023-05-10T09:00:22.851Z,183.21
2023-05-10T09:01:23.036Z,183.35
2023-05-10T09:02:22.897Z,183.32
2023-05-10T09:03:22.912Z,185.40
2023-05-10T09:04:22.980Z,185.38
2023-05-10T09:05:23.252Z,183.43
2023-05-10T09:06:23.121Z,187.60
2023-05-10T09:07:22.930Z,194.76
2023-05-10T09:08:22.968Z,196.65
2023-05-10T09:09:22.971Z,195.97
2023-05-10T09:10:23.759Z,193.28
2023-05-10T09:11:22.951Z,195.06
2023-05-10T09:12:22.971Z,194.41
2023-05-10T09:13:23.036Z,193.64
2023-05-10T09:14:22.978Z,195.01
2023-05-10T09:15:22.967Z,193.67
2023-05-10T09:16:23.100Z,190.71
2023-05-10T09:17:23.061Z,191.63
2023-05-10T09:18:23.025Z,190.14
2023-05-10T09:19:23.001Z,191.93
2023-05-10T09:20:23.019Z,188.76
2023-05-10T09:21:22.985Z,187.57
2023-05-10T09:22:23.112Z,185.17
2023-05-10T09:23:23.129Z,186.62
2023-05-10T09:24:23.048Z,182.10
2023-05-10T09:25:23.032Z,174.57
2023-05-10T09:26:22.974Z,177.90
2023-05-10T09:27:23.014Z,176.26
2023-05-10T09:28:22.971Z,175.65
2023-05-10T09:29:22.972Z,170.95
2023-05-10T09:30:22.995Z,176.95
2023-05-10T09:31:23.002Z,190.46
2023-05-10T09:32:23.059Z,215.48
2023-05-10T09:33:23.065Z,206.00
2023-05-10T09:34:23.853Z,218.81
2023-05-10T09:35:23.033Z,240.25
2023-05-10T09:36:23.068Z,234.33
2023-05-10T09:37:23.138Z,224.03
2023-05-10T09:38:23.265Z,218.49
2023-05-10T09:39:23.325Z,216.41
2023-05-10T09:40:24.309Z,225.07
2023-05-10T09:41:23.402Z,226.17
2023-05-10T09:42:23.421Z,241.35
2023-05-10T09:43:23.500Z,248.67
2023-05-10T09:44:23.563Z,232.96
2023-05-10T09:45:23.645Z,221.01
2023-05-10T09:46:23.816Z,211.49
2023-05-10T09:47:23.772Z,211.95
2023-05-10T09:48:23.799Z,207.49
2023-05-10T09:49:23.956Z,198.58
2023-05-10T09:50:24.292Z,194.33
2023-05-10T09:51:23.934Z,186.66
2023-05-10T09:52:23.978Z,193.01
2023-05-10T09:53:23.967Z,194.70
2023-05-10T09:54:24.014Z,200.65
2023-05-10T09:55:24.039Z,205.29
2023-05-10T09:56:24.010Z,208.40
2023-05-10T09:57:24.095Z,194.20
2023-05-10T09:58:24.006Z,188.46
2023-05-10T09:59:24.057Z,187.72
2023-05-10T10:00:24.011Z,170.12
2023-05-10T10:01:24.125Z,157.30
2023-05-10T10:02:24.031Z,175.87
2023-05-10T10:03:24.010Z,191.44
2023-05-10T10:04:24.153Z,188.65
2023-05-10T10:05:24.101Z,175.26
2023-05-10T10:06:30.188Z,169.51
2023-05-10T10:07:25.067Z,169.68
2023-05-10T10:08:24.028Z,169.96
2023-05-10T10:09:24.091Z,170.51
2023-05-10T10:10:24.058Z,171.90
2023-05-10T10:11:24.318Z,174.19
2023-05-10T10:12:24.018Z,181.22
2023-05-10T10:13:24.075Z,192.18
2023-05-10T10:14:24.018Z,191.89
2023-05-10T10:15:24.003Z,189.59
2023-05-10T10:16:24.057Z,183.08
2023-05-10T10:17:24.042Z,193.54
2023-05-10T10:18:24.027Z,192.89
2023-05-10T10:19:24.007Z,186.43
2023-05-10T10:20:23.961Z,187.37
2023-05-10T10:21:24.015Z,189.91
2023-05-10T10:22:23.946Z,190.31
2023-05-10T10:23:23.934Z,204.41
2023-05-10T10:24:24.003Z,204.64
2023-05-10T10:25:23.913Z,199.30
2023-05-10T10:26:23.937Z,195.78
2023-05-10T10:27:23.906Z,192.88
2023-05-10T10:28:25.001Z,193.94
2023-05-10T10:29:23.908Z,198.23
2023-05-10T10:30:23.885Z,197.76
2023-05-10T10:31:24.498Z,197.06
2023-05-10T10:32:23.900Z,189.97
2023-05-10T10:33:28.447Z,166.45
2023-05-10T10:34:24.870Z,165.80
2023-05-10T10:35:23.891Z,158.61
2023-05-10T10:36:24.038Z,147.40
2023-05-10T10:37:23.821Z,143.37
2023-05-10T10:38:23.891Z,135.41
2023-05-10T10:39:23.822Z,136.53
2023-05-10T10:40:23.823Z,141.80
2023-05-10T10:41:23.797Z,134.33
2023-05-10T10:42:23.827Z,142.06
2023-05-10T10:43:23.812Z,143.10
2023-05-10T10:44:23.775Z,146.12
2023-05-10T10:45:23.787Z,148.73
2023-05-10T10:46:23.911Z,145.11
2023-05-10T10:47:23.786Z,147.31
2023-05-10T10:48:23.807Z,149.50
2023-05-10T10:49:23.763Z,146.23
2023-05-10T10:50:23.782Z,148.69
2023-05-10T10:51:23.799Z,148.51
2023-05-10T10:52:23.824Z,150.83
2023-05-10T10:53:23.723Z,148.47
2023-05-10T10:54:23.745Z,149.60
2023-05-10T10:55:23.710Z,148.88
2023-05-10T10:56:23.863Z,147.41
2023-05-10T10:57:23.694Z,148.10
2023-05-10T10:58:23.712Z,146.56
2023-05-10T10:59:23.693Z,143.59
2023-05-10T11:00:23.738Z,152.45
2023-05-10T11:01:23.772Z,149.16
2023-05-10T11:02:23.705Z,149.12
2023-05-10T11:03:23.735Z,151.17
2023-05-10T11:04:23.772Z,153.25
2023-05-10T11:05:23.711Z,154.13
2023-05-10T11:06:23.774Z,152.38
2023-05-10T11:07:23.639Z,157.84
2023-05-10T11:08:23.655Z,157.05
2023-05-10T11:09:23.631Z,149.96
2023-05-10T11:10:23.752Z,150.79
2023-05-10T11:11:23.634Z,147.71
2023-05-10T11:12:23.637Z,138.96
2023-05-10T11:13:23.645Z,139.04
2023-05-10T11:14:23.649Z,132.24
2023-05-10T11:15:23.675Z,129.76
2023-05-10T11:16:23.680Z,127.33
2023-05-10T11:17:23.722Z,138.53
2023-05-10T11:18:23.730Z,152.92
2023-05-10T11:19:23.702Z,174.97
2023-05-10T11:20:23.730Z,188.70
2023-05-10T11:21:23.787Z,192.94
2023-05-10T11:22:23.943Z,189.21
2023-05-10T11:23:23.896Z,185.55
2023-05-10T11:24:23.955Z,178.49
2023-05-10T11:25:24.045Z,162.59
2023-05-10T11:26:24.111Z,152.29
2023-05-10T11:27:24.132Z,145.22
2023-05-10T11:28:24.158Z,142.73
2023-05-10T11:29:24.190Z,135.97
2023-05-10T11:30:24.248Z,130.01
2023-05-10T11:31:24.278Z,126.50
2023-05-10T11:32:24.274Z,129.33
2023-05-10T11:33:24.245Z,132.63
2023-05-10T11:34:24.211Z,134.63
2023-05-10T11:35:24.276Z,134.83
2023-05-10T11:36:24.260Z,135.52
2023-05-10T11:37:24.220Z,132.54
2023-05-10T11:38:24.205Z,126.06
2023-05-10T11:39:24.348Z,115.06
2023-05-10T11:40:24.258Z,99.58
2023-05-10T11:41:24.273Z,88.38
2023-05-10T11:42:24.274Z,88.44
2023-05-10T11:43:24.272Z,88.72
2023-05-10T11:44:24.307Z,82.43
2023-05-10T11:45:24.258Z,78.44
2023-05-10T11:46:24.333Z,75.70
2023-05-10T11:47:24.306Z,69.84
2023-05-10T11:48:24.271Z,67.96
2023-05-10T11:49:24.296Z,68.96
2023-05-10T11:50:24.264Z,68.16
2023-05-10T11:51:24.310Z,62.25
2023-05-10T11:52:24.291Z,58.19
2023-05-10T11:53:25.861Z,47.65
2023-05-10T11:54:24.332Z,48.79
2023-05-10T11:55:24.300Z,43.47
2023-05-10T11:56:24.394Z,28.97
2023-05-10T11:57:24.314Z,34.00
2023-05-10T11:58:24.339Z,29.99
2023-05-10T11:59:24.336Z,25.87
2023-05-10T12:00:24.351Z,22.98
2023-05-10T12:01:24.347Z,23.63
2023-05-10T12:02:24.479Z,28.34
2023-05-10T12:03:24.483Z,25.16
2023-05-10T12:04:24.392Z,25.00
2023-05-10T12:05:24.380Z,25.70
2023-05-10T12:06:24.386Z,24.92
2023-05-10T12:07:24.403Z,26.96
2023-05-10T12:08:24.388Z,25.00
2023-05-10T12:09:39.621Z,26.00
2023-05-10T12:10:25.383Z,25.65
2023-05-10T12:11:24.389Z,21.99
2023-05-10T12:12:24.356Z,16.93
2023-05-10T12:13:24.364Z,14.28
2023-05-10T12:14:24.357Z,15.68
2023-05-10T12:15:24.358Z,26.23
2023-05-10T12:16:24.404Z,26.34
2023-05-10T12:17:24.447Z,25.03
2023-05-10T12:18:24.389Z,27.71
2023-05-10T12:19:24.340Z,25.18
2023-05-10T12:20:24.336Z,24.99
2023-05-10T12:21:24.313Z,25.65
2023-05-10T12:22:24.352Z,25.00
2023-05-10T12:23:24.305Z,25.00
2023-05-10T12:24:24.359Z,26.25
2023-05-10T12:25:24.273Z,26.09
2023-05-10T12:26:24.312Z,25.20
2023-05-10T12:27:24.277Z,26.42
2023-05-10T12:28:24.284Z,26.03
2023-05-10T12:29:24.249Z,26.03
2023-05-10T12:30:24.292Z,25.69
2023-05-10T12:31:24.385Z,27.32
2023-05-10T12:32:24.340Z,29.86
2023-05-10T12:33:24.291Z,27.64
2023-05-10T12:34:24.268Z,26.85
2023-05-10T12:35:24.284Z,27.04
2023-05-10T12:36:24.211Z,25.49
2023-05-10T12:37:24.198Z,27.93
2023-05-10T12:38:24.223Z,26.94
2023-05-10T12:39:24.226Z,26.35
2023-05-10T12:40:24.239Z,25.57
2023-05-10T12:41:24.279Z,30.84
2023-05-10T12:42:24.349Z,30.80
2023-05-10T12:43:24.414Z,27.45
2023-05-10T12:44:24.385Z,26.60
2023-05-10T12:45:24.434Z,27.86
2023-05-10T12:46:24.496Z,30.37
2023-05-10T12:47:24.511Z,33.91
2023-05-10T12:48:24.520Z,34.96
2023-05-10T12:49:24.535Z,39.58